createdAt,value
2023-01-06T00:00:35.770Z,2.44
2023-01-06T00:03:02.950Z,2.39
2023-01-06T00:05:29.733Z,2.37
2023-01-06T00:07:56.881Z,2.32
2023-01-06T00:10:23.808Z,2.27
2023-01-06T00:12:50.909Z,2.27
2023-01-06T00:15:18.552Z,2.20
2023-01-06T00:17:45.721Z,2.30
2023-01-06T00:20:13.308Z,2.33
2023-01-06T00:22:41.305Z,2.37
2023-01-06T00:25:11.866Z,2.39
2023-01-06T00:27:39.822Z,2.39
2023-01-06T00:30:07.886Z,2.30
2023-01-06T00:32:35.111Z,2.12
2023-01-06T00:35:01.991Z,2.14
2023-01-06T00:37:28.534Z,2.26
2023-01-06T00:39:55.145Z,2.27
2023-01-06T00:42:22.701Z,2.21
2023-01-06T00:44:49.820Z,2.29
2023-01-06T00:47:16.708Z,2.40
2023-01-06T00:49:43.386Z,2.28
2023-01-06T00:52:10.291Z,2.33
2023-01-06T00:54:37.268Z,2.21
2023-01-06T00:57:07.004Z,2.25
2023-01-06T00:59:33.970Z,2.29
2023-01-06T01:02:00.678Z,2.19
2023-01-06T01:04:27.701Z,2.22
2023-01-06T01:06:54.651Z,2.19
2023-01-06T01:09:26.578Z,2.27
2023-01-06T01:12:11.903Z,2.30
2023-01-06T01:14:47.358Z,2.22
2023-01-06T01:17:25.823Z,2.26
2023-01-06T01:19:54.523Z,2.20
2023-01-06T01:22:22.562Z,2.22
2023-01-06T01:24:49.092Z,2.35
2023-01-06T01:27:16.201Z,2.32
2023-01-06T01:29:42.907Z,2.45
2023-01-06T01:32:09.805Z,2.53
2023-01-06T01:34:36.590Z,2.46
2023-01-06T01:37:03.514Z,2.42
2023-01-06T01:39:30.912Z,2.50
2023-01-06T01:41:58.905Z,2.61
2023-01-06T01:44:55.816Z,2.62
2023-01-06T01:47:34.514Z,2.57
2023-01-06T01:50:25.169Z,2.45
2023-01-06T01:52:56.314Z,2.52
2023-01-06T01:55:25.073Z,2.64
2023-01-06T01:58:06.791Z,2.61
2023-01-06T02:00:34.523Z,2.66
2023-01-06T02:03:01.693Z,2.65
2023-01-06T02:05:29.048Z,2.63
2023-01-06T02:07:57.553Z,2.64
2023-01-06T02:10:25.220Z,2.53
2023-01-06T02:12:59.708Z,2.57
2023-01-06T02:15:32.468Z,2.49
2023-01-06T02:18:13.912Z,2.54
2023-01-06T02:20:56.026Z,2.29
2023-01-06T02:23:46.867Z,2.38
2023-01-06T02:26:34.986Z,2.44
2023-01-06T02:29:29.316Z,2.38
2023-01-06T02:32:01.032Z,2.52
2023-01-06T02:34:33.464Z,2.50
2023-01-06T02:37:28.350Z,2.47
2023-01-06T02:40:21.367Z,2.33
2023-01-06T02:42:47.910Z,2.36
2023-01-06T02:45:21.183Z,2.43
2023-01-06T02:48:03.528Z,2.48
2023-01-06T02:50:51.003Z,2.45
2023-01-06T02:53:55.242Z,2.44
2023-01-06T02:56:25.647Z,2.44
2023-01-06T02:58:58.166Z,2.51
2023-01-06T03:01:31.863Z,2.60
2023-01-06T03:04:03.193Z,2.53
2023-01-06T03:06:32.925Z,2.47
2023-01-06T03:09:01.635Z,2.45
2023-01-06T03:11:31.935Z,2.40
2023-01-06T03:14:02.368Z,2.45
2023-01-06T03:16:29.053Z,2.37
2023-01-06T03:18:56.714Z,2.36
2023-01-06T03:21:30.157Z,2.48
2023-01-06T03:23:57.156Z,2.51
2023-01-06T03:26:25.463Z,2.51
2023-01-06T03:28:52.066Z,2.51
2023-01-06T03:31:51.028Z,2.46
2023-01-06T03:34:32.890Z,2.12
2023-01-06T03:37:50.267Z,2.20
2023-01-06T03:40:34.222Z,2.43
2023-01-06T03:43:16.252Z,2.34
2023-01-06T03:46:50.452Z,2.43
2023-01-06T03:49:22.355Z,2.44
2023-01-06T03:52:12.016Z,2.42
2023-01-06T03:54:54.187Z,2.54
2023-01-06T03:57:29.118Z,2.61
2023-01-06T04:00:01.981Z,2.73
2023-01-06T04:02:28.814Z,2.77
2023-01-06T04:05:14.223Z,2.85
2023-01-06T04:07:42.092Z,2.79
2023-01-06T04:10:10.088Z,2.81
2023-01-06T04:12:39.655Z,2.66
2023-01-06T04:15:31.219Z,2.72
2023-01-06T04:17:57.968Z,2.74
2023-01-06T04:20:29.739Z,2.78
2023-01-06T04:22:57.885Z,2.60
2023-01-06T04:25:25.144Z,2.52
2023-01-06T04:27:51.559Z,2.42
2023-01-06T04:30:18.586Z,2.46
2023-01-06T04:32:45.157Z,2.45
2023-01-06T04:35:11.769Z,2.45
2023-01-06T04:37:38.546Z,2.49
2023-01-06T04:40:07.645Z,2.53
2023-01-06T04:42:54.728Z,2.54
2023-01-06T04:45:21.851Z,2.47
2023-01-06T04:47:48.535Z,2.27
2023-01-06T04:50:15.480Z,2.40
2023-01-06T04:52:42.068Z,2.47
2023-01-06T04:55:09.433Z,2.52
2023-01-06T04:57:35.837Z,2.37
2023-01-06T05:00:02.480Z,2.29
2023-01-06T05:02:29.045Z,2.27
2023-01-06T05:04:55.651Z,2.35
2023-01-06T05:07:22.205Z,2.42
2023-01-06T05:09:48.827Z,2.36
2023-01-06T05:12:15.369Z,2.41
2023-01-06T05:14:41.916Z,2.47
2023-01-06T05:17:08.474Z,2.42
2023-01-06T05:19:35.007Z,2.45
2023-01-06T05:22:01.503Z,2.43
2023-01-06T05:24:28.037Z,2.44
2023-01-06T05:26:55.093Z,2.47
2023-01-06T05:29:21.678Z,2.51
2023-01-06T05:31:48.313Z,2.53
2023-01-06T05:34:14.964Z,2.58
2023-01-06T05:36:41.561Z,2.27
2023-01-06T05:39:08.119Z,1.94
2023-01-06T05:41:34.679Z,1.88
2023-01-06T05:44:01.253Z,1.96
2023-01-06T05:46:27.888Z,1.91
2023-01-06T05:48:54.447Z,1.99
2023-01-06T05:51:21.037Z,2.08
2023-01-06T05:53:49.057Z,2.11
2023-01-06T05:56:19.882Z,2.17
2023-01-06T05:58:49.366Z,2.30
2023-01-06T06:01:22.028Z,2.40
2023-01-06T06:03:49.559Z,2.38
2023-01-06T06:06:16.694Z,2.43
2023-01-06T06:08:43.331Z,2.47
2023-01-06T06:11:13.691Z,2.63
2023-01-06T06:13:49.152Z,2.71
2023-01-06T06:16:17.458Z,2.56
2023-01-06T06:18:44.772Z,2.49
2023-01-06T06:21:12.555Z,2.55
2023-01-06T06:23:39.842Z,2.51
2023-01-06T06:26:06.842Z,2.39
2023-01-06T06:28:34.227Z,2.41
2023-01-06T06:31:23.026Z,2.45
2023-01-06T06:33:55.275Z,2.63
2023-01-06T06:36:22.085Z,2.79
2023-01-06T06:38:50.695Z,2.85
2023-01-06T06:41:18.087Z,2.86
2023-01-06T06:43:44.898Z,3.01
2023-01-06T06:46:12.113Z,2.86
2023-01-06T06:48:38.600Z,2.93
2023-01-06T06:51:08.604Z,2.88
2023-01-06T06:53:35.987Z,2.97
2023-01-06T06:56:04.433Z,3.05
2023-01-06T06:58:31.135Z,3.08
2023-01-06T07:00:57.705Z,3.11
2023-01-06T07:03:25.344Z,3.07
2023-01-06T07:05:52.881Z,3.14
2023-01-06T07:08:19.558Z,3.13
2023-01-06T07:10:46.144Z,3.15
2023-01-06T07:13:12.893Z,3.07
2023-01-06T07:15:39.577Z,3.04
2023-01-06T07:18:07.022Z,2.96
2023-01-06T07:20:35.168Z,3.01
2023-01-06T07:23:01.959Z,3.06
2023-01-06T07:25:28.712Z,3.06
2023-01-06T07:27:57.149Z,3.15
2023-01-06T07:30:26.019Z,3.29
2023-01-06T07:32:52.837Z,3.30
2023-01-06T07:35:19.703Z,3.40
2023-01-06T07:37:46.312Z,3.58
2023-01-06T07:40:13.358Z,3.75
2023-01-06T07:42:40.375Z,3.67
2023-01-06T07:45:07.987Z,3.43
2023-01-06T07:47:34.808Z,3.54
2023-01-06T07:50:01.542Z,3.58
2023-01-06T07:52:28.122Z,3.80
2023-01-06T07:54:59.301Z,3.97
2023-01-06T07:57:29.605Z,4.15
2023-01-06T07:59:56.209Z,4.24
2023-01-06T08:02:23.577Z,4.36
2023-01-06T08:04:50.411Z,4.51
2023-01-06T08:07:17.176Z,4.63
2023-01-06T08:09:43.791Z,4.78
2023-01-06T08:12:10.535Z,4.87
2023-01-06T08:14:37.083Z,4.95
2023-01-06T08:17:03.847Z,4.85
2023-01-06T08:19:30.496Z,5.01
2023-01-06T08:21:57.069Z,5.20
2023-01-06T08:24:23.609Z,5.40
2023-01-06T08:26:50.133Z,5.45
2023-01-06T08:29:16.694Z,5.35
2023-01-06T08:31:43.255Z,5.56
2023-01-06T08:34:11.527Z,5.63
2023-01-06T08:36:38.777Z,5.77
2023-01-06T08:39:05.324Z,5.86
2023-01-06T08:41:31.935Z,6.00
2023-01-06T08:43:58.493Z,6.01
2023-01-06T08:46:26.597Z,6.08
2023-01-06T08:48:53.270Z,6.24
2023-01-06T08:51:23.673Z,6.39
2023-01-06T08:53:51.936Z,6.75
2023-01-06T08:56:21.346Z,7.06
2023-01-06T08:58:55.616Z,7.46
2023-01-06T09:01:24.132Z,7.98
2023-01-06T09:03:51.096Z,8.48
2023-01-06T09:06:19.387Z,8.86
2023-01-06T09:08:48.554Z,9.20
2023-01-06T09:11:17.232Z,9.49
2023-01-06T09:13:44.197Z,10.10
2023-01-06T09:16:11.780Z,10.57
2023-01-06T09:18:38.895Z,12.34
2023-01-06T09:21:06.454Z,14.58
2023-01-06T09:23:33.045Z,16.41
2023-01-06T09:25:59.658Z,16.18
2023-01-06T09:28:26.455Z,15.91
2023-01-06T09:30:53.227Z,14.79
2023-01-06T09:33:19.885Z,14.62
2023-01-06T09:35:46.709Z,14.12
2023-01-06T09:38:14.605Z,13.71
2023-01-06T09:40:59.103Z,13.31
2023-01-06T09:43:40.491Z,13.10
2023-01-06T09:46:10.707Z,12.84
2023-01-06T09:48:45.086Z,12.69
2023-01-06T09:51:18.459Z,12.58
2023-01-06T09:53:52.615Z,12.36
2023-01-06T09:56:22.552Z,12.34
2023-01-06T09:59:16.640Z,12.01
2023-01-06T10:01:47.405Z,11.85
2023-01-06T10:04:25.107Z,11.52
2023-01-06T10:07:06.544Z,11.41
2023-01-06T10:09:39.068Z,11.46
2023-01-06T10:12:08.608Z,11.44
2023-01-06T10:14:46.973Z,11.53
2023-01-06T10:18:04.675Z,11.73
2023-01-06T10:20:40.043Z,11.98
2023-01-06T10:23:19.839Z,11.87
2023-01-06T10:26:12.253Z,12.04
2023-01-06T10:28:53.212Z,12.21
2023-01-06T10:31:26.607Z,12.24
2023-01-06T10:33:55.180Z,12.23
2023-01-06T10:36:31.278Z,12.15
2023-01-06T10:38:59.181Z,11.88
2023-01-06T10:41:54.209Z,11.86
2023-01-06T10:44:20.810Z,11.80
2023-01-06T10:46:50.163Z,12.02
2023-01-06T10:49:21.350Z,12.23
2023-01-06T10:51:57.301Z,12.38
2023-01-06T10:54:27.893Z,12.39
2023-01-06T10:57:00.190Z,12.57
2023-01-06T10:59:26.743Z,12.95
2023-01-06T11:01:58.997Z,13.14
2023-01-06T11:04:27.926Z,13.20
2023-01-06T11:06:58.088Z,13.28
2023-01-06T11:09:39.119Z,13.57
2023-01-06T11:12:16.467Z,13.85
2023-01-06T11:14:46.938Z,13.94
2023-01-06T11:17:16.325Z,13.98
2023-01-06T11:19:44.880Z,14.00
2023-01-06T11:22:40.547Z,14.26
2023-01-06T11:25:22.068Z,14.35
2023-01-06T11:28:09.651Z,14.49
2023-01-06T11:30:52.682Z,14.54
2023-01-06T11:33:25.675Z,14.50
2023-01-06T11:35:53.464Z,14.30
2023-01-06T11:38:21.891Z,14.05
2023-01-06T11:40:50.591Z,13.96
2023-01-06T11:43:29.422Z,13.81
2023-01-06T11:46:00.795Z,13.70
2023-01-06T11:48:34.571Z,13.51
2023-01-06T11:51:03.655Z,13.46
2023-01-06T11:53:31.039Z,13.46
2023-01-06T11:55:57.613Z,13.77
2023-01-06T11:59:02.056Z,14.06
2023-01-06T12:02:07.325Z,13.99
2023-01-06T12:04:42.129Z,13.81
2023-01-06T12:07:27.510Z,13.82
2023-01-06T12:09:58.591Z,13.75
2023-01-06T12:12:27.801Z,13.80
2023-01-06T12:14:54.896Z,13.55
2023-01-06T12:17:48.048Z,13.52
2023-01-06T12:20:17.663Z,13.40
2023-01-06T12:22:51.754Z,13.38
2023-01-06T12:25:26.285Z,13.55
2023-01-06T12:28:01.255Z,13.73
2023-01-06T12:30:39.995Z,14.10
2023-01-06T12:33:40.010Z,14.29
2023-01-06T12:36:13.474Z,14.49
2023-01-06T12:38:56.141Z,14.63
2023-01-06T12:41:38.085Z,14.63
2023-01-06T12:44:38.601Z,14.54
2023-01-06T12:47:34.291Z,14.49
2023-01-06T12:50:07.914Z,14.74
2023-01-06T12:52:50.532Z,14.64
2023-01-06T12:55:22.920Z,14.50
2023-01-06T12:58:04.500Z,14.40
2023-01-06T13:01:03.868Z,14.56
2023-01-06T13:03:56.600Z,14.38
2023-01-06T13:06:23.086Z,14.28
2023-01-06T13:09:06.500Z,14.22
2023-01-06T13:11:54.022Z,14.32
2023-01-06T13:14:43.679Z,14.18
2023-01-06T13:17:35.213Z,14.05
2023-01-06T13:20:06.120Z,14.09
2023-01-06T13:22:35.557Z,14.00
2023-01-06T13:25:17.285Z,13.97
2023-01-06T13:28:05.333Z,13.93
2023-01-06T13:31:23.336Z,13.81
2023-01-06T13:34:23.828Z,13.87
2023-01-06T13:37:10.563Z,13.74
2023-01-06T13:39:42.636Z,13.62
2023-01-06T13:42:17.454Z,13.50
2023-01-06T13:44:47.159Z,13.48
2023-01-06T13:47:22.209Z,13.59
2023-01-06T13:49:49.885Z,13.69
2023-01-06T13:52:23.818Z,13.75
2023-01-06T13:54:51.152Z,13.74
2023-01-06T13:57:20.524Z,13.65
2023-01-06T13:59:52.681Z,13.53
2023-01-06T14:02:34.594Z,13.49
2023-01-06T14:05:22.482Z,13.26
2023-01-06T14:08:16.811Z,12.99
2023-01-06T14:10:46.024Z,12.92
2023-01-06T14:13:21.545Z,12.91
2023-01-06T14:16:02.126Z,12.88
2023-01-06T14:18:42.250Z,12.89
2023-01-06T14:21:14.498Z,12.79
2023-01-06T14:24:00.381Z,12.78
2023-01-06T14:26:55.889Z,12.79
2023-01-06T14:29:43.695Z,12.61
2023-01-06T14:32:17.068Z,12.59
2023-01-06T14:34:52.484Z,12.52
2023-01-06T14:37:23.631Z,12.47
2023-01-06T14:39:54.105Z,12.40
2023-01-06T14:42:34.869Z,12.27
2023-01-06T14:45:07.532Z,12.20
2023-01-06T14:47:42.748Z,12.20
2023-01-06T14:50:15.543Z,12.01
2023-01-06T14:52:49.443Z,11.98
2023-01-06T14:55:19.489Z,11.91
2023-01-06T14:57:46.080Z,11.90
2023-01-06T15:00:24.117Z,11.91
2023-01-06T15:02:53.708Z,11.94
2023-01-06T15:05:26.638Z,11.79
2023-01-06T15:08:17.451Z,11.74
2023-01-06T15:10:49.415Z,11.64
2023-01-06T15:13:30.690Z,11.63
2023-01-06T15:16:04.863Z,11.61
2023-01-06T15:18:32.447Z,11.46
2023-01-06T15:20:59.742Z,11.33
2023-01-06T15:23:26.315Z,11.22
2023-01-06T15:25:54.965Z,11.24
2023-01-06T15:28:31.407Z,11.22
2023-01-06T15:31:00.081Z,10.95
2023-01-06T15:33:47.239Z,10.73
2023-01-06T15:36:22.186Z,10.63
2023-01-06T15:38:50.464Z,10.58
2023-01-06T15:41:37.480Z,10.41
2023-01-06T15:44:19.910Z,10.21
2023-01-06T15:46:48.795Z,10.04
2023-01-06T15:49:28.921Z,9.91
2023-01-06T15:52:03.329Z,9.87
2023-01-06T15:54:32.116Z,9.84
2023-01-06T15:57:15.337Z,9.74
2023-01-06T16:00:02.007Z,9.73
2023-01-06T16:02:33.241Z,9.64
2023-01-06T16:05:00.925Z,9.62
2023-01-06T16:07:36.460Z,9.61
2023-01-06T16:10:03.585Z,9.60
2023-01-06T16:12:30.250Z,9.64
2023-01-06T16:14:56.861Z,9.62
2023-01-06T16:17:28.292Z,9.59
2023-01-06T16:20:06.652Z,9.52
2023-01-06T16:22:37.340Z,9.45
2023-01-06T16:25:28.471Z,9.29
2023-01-06T16:27:57.682Z,9.17
2023-01-06T16:30:26.174Z,9.03
2023-01-06T16:32:55.382Z,8.93
2023-01-06T16:35:24.273Z,8.86
2023-01-06T16:37:51.495Z,8.71
2023-01-06T16:40:20.512Z,8.58
2023-01-06T16:42:48.109Z,8.46
2023-01-06T16:45:26.777Z,8.39
2023-01-06T16:47:54.738Z,8.38
2023-01-06T16:50:45.362Z,8.30
2023-01-06T16:53:12.382Z,8.26
2023-01-06T16:55:40.597Z,8.16
2023-01-06T16:58:17.778Z,7.93
2023-01-06T17:00:48.180Z,7.91
2023-01-06T17:03:16.734Z,7.86
2023-01-06T17:05:43.537Z,7.86
2023-01-06T17:08:16.249Z,7.74
2023-01-06T17:10:43.665Z,7.65
2023-01-06T17:13:32.092Z,7.56
2023-01-06T17:16:02.117Z,7.50
2023-01-06T17:18:30.529Z,7.37
2023-01-06T17:21:05.803Z,7.20
2023-01-06T17:23:54.552Z,7.19
2023-01-06T17:26:22.080Z,7.10
2023-01-06T17:28:50.102Z,7.13
2023-01-06T17:31:18.910Z,7.11
2023-01-06T17:33:46.546Z,7.06
2023-01-06T17:36:25.182Z,6.99
2023-01-06T17:38:52.371Z,6.95
2023-01-06T17:41:19.525Z,7.00
2023-01-06T17:43:46.857Z,6.91
2023-01-06T17:46:27.751Z,6.79
2023-01-06T17:49:07.666Z,6.65
2023-01-06T17:51:35.109Z,6.59
2023-01-06T17:54:20.676Z,6.57
2023-01-06T17:56:47.493Z,6.50
2023-01-06T17:59:17.532Z,6.45
2023-01-06T18:01:44.201Z,6.41
2023-01-06T18:04:14.141Z,6.42
2023-01-06T18:06:44.910Z,6.40
2023-01-06T18:09:16.412Z,6.43
2023-01-06T18:11:53.106Z,6.49
2023-01-06T18:14:33.674Z,6.55
2023-01-06T18:17:16.289Z,6.56
2023-01-06T18:19:42.891Z,6.55
2023-01-06T18:22:17.194Z,6.54
2023-01-06T18:24:44.114Z,6.55
2023-01-06T18:27:19.425Z,6.54
2023-01-06T18:29:46.089Z,6.56
2023-01-06T18:32:21.912Z,6.57
2023-01-06T18:34:51.123Z,6.58
2023-01-06T18:37:21.341Z,6.55
2023-01-06T18:39:50.144Z,6.55
2023-01-06T18:42:26.229Z,6.58
2023-01-06T18:44:59.896Z,6.52
2023-01-06T18:47:28.935Z,6.56
2023-01-06T18:50:01.009Z,6.42
2023-01-06T18:52:38.827Z,6.45
2023-01-06T18:55:16.544Z,6.37
2023-01-06T18:57:45.973Z,6.36
2023-01-06T19:00:30.897Z,6.46
2023-01-06T19:03:30.060Z,6.56
2023-01-06T19:06:08.938Z,6.59
2023-01-06T19:08:38.635Z,6.56
2023-01-06T19:11:16.780Z,6.62
2023-01-06T19:13:45.637Z,6.53
2023-01-06T19:16:35.536Z,6.52
2023-01-06T19:19:11.063Z,6.53
2023-01-06T19:21:38.494Z,6.55
2023-01-06T19:24:23.829Z,6.51
2023-01-06T19:26:50.477Z,6.54
2023-01-06T19:29:17.007Z,6.57
2023-01-06T19:31:53.660Z,6.57
2023-01-06T19:34:22.975Z,6.54
2023-01-06T19:36:52.319Z,6.50
2023-01-06T19:39:40.405Z,6.53
2023-01-06T19:42:19.973Z,6.48
2023-01-06T19:44:49.527Z,6.43
2023-01-06T19:47:25.193Z,6.48
2023-01-06T19:49:55.915Z,6.55
2023-01-06T19:52:31.212Z,6.54
2023-01-06T19:55:14.103Z,6.56
2023-01-06T19:57:43.828Z,6.54
2023-01-06T20:00:45.952Z,6.58
2023-01-06T20:03:34.704Z,6.55
2023-01-06T20:06:01.600Z,6.54
2023-01-06T20:08:28.277Z,6.58
2023-01-06T20:10:55.217Z,6.58
2023-01-06T20:13:21.958Z,6.49
2023-01-06T20:15:48.607Z,6.49
2023-01-06T20:18:15.276Z,6.54
2023-01-06T20:20:41.892Z,6.50
2023-01-06T20:23:08.664Z,6.39
2023-01-06T20:25:35.769Z,6.28
2023-01-06T20:28:02.411Z,6.31
2023-01-06T20:30:29.004Z,6.24
2023-01-06T20:32:55.876Z,6.21
2023-01-06T20:35:22.430Z,6.20
2023-01-06T20:37:49.101Z,6.14
2023-01-06T20:40:16.156Z,5.94
2023-01-06T20:42:42.724Z,6.01
2023-01-06T20:45:10.321Z,6.06
2023-01-06T20:47:36.984Z,6.06
2023-01-06T20:50:07.012Z,6.04
2023-01-06T20:52:34.584Z,5.97
2023-01-06T20:55:01.352Z,5.83
2023-01-06T20:57:27.990Z,5.77
2023-01-06T20:59:54.500Z,5.77
2023-01-06T21:02:21.315Z,5.74
2023-01-06T21:04:48.018Z,5.55
2023-01-06T21:07:14.615Z,5.62
2023-01-06T21:09:41.262Z,5.63
2023-01-06T21:12:08.046Z,5.57
2023-01-06T21:14:35.406Z,5.55
2023-01-06T21:17:03.786Z,5.53
2023-01-06T21:19:30.612Z,5.23
2023-01-06T21:21:57.256Z,5.29
2023-01-06T21:24:23.922Z,5.21
2023-01-06T21:26:50.458Z,5.02
2023-01-06T21:29:17.024Z,5.12
2023-01-06T21:31:43.962Z,5.01
2023-01-06T21:34:10.554Z,4.98
2023-01-06T21:36:37.092Z,5.00
2023-01-06T21:39:07.025Z,4.97
2023-01-06T21:41:52.068Z,4.99
2023-01-06T21:44:18.617Z,4.79
2023-01-06T21:46:45.179Z,4.81
2023-01-06T21:49:11.742Z,4.77
2023-01-06T21:51:39.448Z,4.71
2023-01-06T21:54:06.532Z,4.68
2023-01-06T21:56:35.048Z,4.34
2023-01-06T21:59:02.055Z,4.20
2023-01-06T22:01:28.714Z,4.15
2023-01-06T22:03:56.521Z,4.11
2023-01-06T22:06:24.407Z,4.12
2023-01-06T22:08:53.169Z,4.15
2023-01-06T22:11:20.196Z,4.17
2023-01-06T22:13:47.123Z,4.15
2023-01-06T22:16:13.888Z,4.04
2023-01-06T22:18:40.579Z,3.95
2023-01-06T22:21:07.561Z,3.80
2023-01-06T22:23:35.733Z,3.63
2023-01-06T22:26:02.834Z,3.56
2023-01-06T22:28:29.599Z,3.57
2023-01-06T22:30:56.446Z,3.54
2023-01-06T22:33:23.171Z,3.51
2023-01-06T22:35:49.874Z,3.53
2023-01-06T22:38:16.828Z,3.60
2023-01-06T22:40:43.436Z,3.68
2023-01-06T22:43:10.012Z,3.69
2023-01-06T22:45:36.970Z,3.69
2023-01-06T22:48:04.000Z,3.58
2023-01-06T22:50:30.541Z,3.69
2023-01-06T22:52:57.194Z,3.70
2023-01-06T22:55:24.231Z,3.74
2023-01-06T22:57:50.851Z,3.63
2023-01-06T23:00:19.532Z,3.52
2023-01-06T23:02:46.451Z,3.43
2023-01-06T23:05:13.444Z,3.25
2023-01-06T23:07:41.711Z,3.28
2023-01-06T23:10:12.816Z,3.26
2023-01-06T23:12:41.204Z,3.22
2023-01-06T23:15:08.832Z,3.25
2023-01-06T23:17:37.400Z,3.14
2023-01-06T23:20:05.438Z,2.96
2023-01-06T23:22:32.022Z,2.97
2023-01-06T23:24:58.592Z,2.87
2023-01-06T23:27:25.167Z,2.78
2023-01-06T23:29:51.683Z,2.69
2023-01-06T23:32:18.200Z,2.42
2023-01-06T23:34:44.735Z,2.25
2023-01-06T23:37:11.283Z,2.09
2023-01-06T23:39:37.857Z,1.91
2023-01-06T23:42:05.592Z,1.89
2023-01-06T23:44:32.288Z,2.04
2023-01-06T23:46:58.806Z,2.11
2023-01-06T23:49:25.341Z,2.16
2023-01-06T23:51:51.842Z,2.15
2023-01-06T23:54:18.405Z,2.18
2023-01-06T23:56:44.913Z,2.26
2023-01-06T23:59:12.740Z,2.29
